• Join FlightAware (Why Join?)
  • Login
  • US Flag 
07:51PM EST


 

Airport Tracker/Info


-or-


 

Live Flight TrackerFlight Track Log ✈ CTL17 ✈ 26-Jun-2013 ✈ KMBS - KYIP

Flight Track Log - Related Links

Times and Time Zones

All times are in EDT time to prevent confusion due to time zone crossing. See the CTL17 flight status page for this flight to view local times or setup timezone preferences in your user account.

Time Position Orientation Groundspeed Altitude Reporting Facility
EDT Latitude Longitude Course Direction KTS MPH feet Rate Location/Type
04:50PM 43.3619 -84.0057 160° South  Level Estimated
04:51PM 43.3366 -83.9838 148° Southeast  Level FlightAware Approximate
04:52PM 43.3080 -83.9718 160° South  Level Estimated
04:53PM 43.2807 -83.9553 156° South  Level FlightAware Approximate
04:54PM 43.2533 -83.9388 156° South  Level FlightAware Approximate
04:55PM 43.2121 -83.9147 163° South  Level FlightAware Approximate
04:56PM 43.1695 -83.8964 163° South  Level FlightAware Approximate
04:57PM 43.1269 -83.8782 163° South  Level FlightAware Approximate
04:58PM 43.0845 -83.8589 160° South  Level FlightAware Approximate
04:58PM 42.9489 -83.7969 160° South 163 188 4,000  Level Cleveland Center
04:59PM 43.0425 -83.8378 160° South  Level FlightAware Approximate
04:59PM 42.9142 -83.7753 155° Southeast 163 188 4,000  Level Cleveland Center
05:00PM 43.0006 -83.8168 160° South  Level FlightAware Approximate
05:01PM 42.8591 -83.7471 159° South  Level FlightAware Approximate
05:01PM 42.9586 -83.7958 160° South  Level FlightAware Approximate
05:01PM 42.8256 -83.7397 159° South 162 186 4,000  Level Cleveland Center
05:02PM 42.9167 -83.7749 160° South  Level FlightAware Approximate
05:02PM 42.7781 -83.7231 166° South 164 189 4,100  Level Cleveland Center
05:03PM 42.8747 -83.7540 160° South  Level FlightAware Approximate
05:03PM 42.7450 -83.7131 167° South 164 189 4,000  Level Cleveland Center
05:04PM 42.8328 -83.7331 160° South  Level FlightAware Approximate
05:04PM 42.6933 -83.6936 165° South 165 190 3,800  Level Cleveland Center
05:05PM 42.6478 -83.6800 168° South 176 203 3,200 -420 Descending Cleveland Center
05:06PM 42.6003 -83.6608 163° South 167 192 3,000 -120 Descending Cleveland Center
05:07PM 42.5592 -83.6475 167° South 156 180 3,000  Level Cleveland Center
05:08PM 42.5136 -83.6311 165° South 158 182 3,000  Level Cleveland Center
05:09PM 42.4703 -83.6122 162° South 155 178 3,000  Level Cleveland Center
05:10PM 42.4331 -83.5992 165° South 153 176 3,100 -120 Climbing Cleveland Center
05:11PM 42.3878 -83.5772 160° South 159 183 2,800 -540 Descending Cleveland Center
05:12PM 42.3425 -83.5583 163° South 171 197 2,100 -600 Descending Cleveland Center
05:13PM 42.3117 -83.5428 160° South 164 189 1,800 -420 Descending Cleveland Center
05:14PM 42.2703 -83.5267 164° South 135 155 1,400 -420 Descending Cleveland Center
05:16PM 42.2333 -83.5167 160° South  Level FlightAware Approximate
05:23PM 42.2393 -83.5310 160° South  Level Estimated
05:24PM 42.2393 -83.5310 160° South  Level Estimated